Time;durP1;ratioP1;P1;durP2;ratioP2;P2;SDS_P1;SDS_P2;PMS_P1;PMS_P2;Temp;Humidity;BMP_temperature;BMP_pressure;BME280_temperature;BME280_humidity;BME280_pressure;Samples;Min_cycle;Max_cycle;Signal;HPM_P1;HPM_P2
2022/01/20 00:02:10;;;;;;;9.30;4.68;;;;;;;;;;5057323;28;20056;-38
2022/01/20 00:04:52;;;;;;;8.30;4.65;;;;;;;;;;5055726;28;20021;-38
2022/01/20 00:23:29;;;;;;;9.82;5.03;;;;;;;;;;5056453;28;20028;-38
2022/01/20 00:28:39;;;;;;;11.15;5.63;;;;;;;;;;5049321;28;20481;-38
2022/01/20 00:34:10;;;;;;;9.25;5.78;;;;;;;;;;5055047;28;20465;-38
2022/01/20 00:37:37;;;;;;;10.18;6.03;;;;;;;;;;5055442;28;20478;-38
2022/01/20 00:39:33;;;;;;;12.18;6.30;;;;;;;;;;5046771;28;20060;-38
2022/01/20 00:42:00;;;;;;;13.00;6.05;;;;;;;;;;5055541;28;20538;-38
2022/01/20 00:44:27;;;;;;;14.82;6.22;;;;;;;;;;5053296;28;20402;-38
2022/01/20 00:46:55;;;;;;;12.98;6.03;;;;;;;;;;5055545;28;20047;-38
2022/01/20 00:49:22;;;;;;;10.40;5.55;;;;;;;;;;5048712;28;20025;-38
2022/01/20 00:51:49;;;;;;;16.02;6.47;;;;;;;;;;5052089;28;20545;-38
2022/01/20 00:54:16;;;;;;;11.15;5.88;;;;;;;;;;5054494;28;20549;-38
2022/01/20 00:56:43;;;;;;;12.07;6.38;;;;;;;;;;5053041;28;20052;-38
2022/01/20 00:59:10;;;;;;;14.65;7.32;;;;;;;;;;5056256;28;20021;-38
2022/01/20 01:01:37;;;;;;;13.88;6.15;;;;;;;;;;5055502;28;20024;-38
2022/01/20 01:04:04;;;;;;;13.00;6.70;;;;;;;;;;5062399;28;20027;-38
2022/01/20 01:09:02;;;;;;;10.05;6.32;;;;;;;;;;5055825;28;20072;-39
2022/01/20 01:11:29;;;;;;;11.57;6.30;;;;;;;;;;5051904;28;20024;-39
2022/01/20 01:13:57;;;;;;;14.52;5.80;;;;;;;;;;5057250;28;20037;-39
2022/01/20 01:16:36;;;;;;;12.20;5.80;;;;;;;;;;5059347;28;20108;-39
2022/01/20 01:22:03;;;;;;;13.68;5.88;;;;;;;;;;5052234;28;20044;-38
2022/01/20 01:24:30;;;;;;;10.57;5.20;;;;;;;;;;5052988;28;20083;-38
2022/01/20 01:26:57;;;;;;;11.35;5.78;;;;;;;;;;5056684;28;20183;-38
2022/01/20 01:32:20;;;;;;;10.00;5.97;;;;;;;;;;5047092;28;20364;-38
2022/01/20 01:34:51;;;;;;;9.05;5.55;;;;;;;;;;5058882;28;20096;-39
2022/01/20 01:39:57;;;;;;;9.25;5.50;;;;;;;;;;5053467;28;20032;-39
2022/01/20 01:42:31;;;;;;;10.88;5.00;;;;;;;;;;5056856;28;20689;-39
2022/01/20 01:45:06;;;;;;;10.07;4.85;;;;;;;;;;5058776;28;20035;-40
2022/01/20 01:47:33;;;;;;;10.43;4.90;;;;;;;;;;5056251;28;20051;-40
2022/01/20 01:50:00;;;;;;;8.65;4.53;;;;;;;;;;5053203;28;20021;-40
2022/01/20 01:52:28;;;;;;;9.55;4.75;;;;;;;;;;5049289;28;20039;-40
2022/01/20 01:54:56;;;;;;;8.05;4.05;;;;;;;;;;5056336;28;20036;-40
2022/01/20 01:57:24;;;;;;;8.43;4.63;;;;;;;;;;5058811;28;20064;-40
2022/01/20 01:59:52;;;;;;;7.88;4.18;;;;;;;;;;5055567;28;20059;-38
2022/01/20 02:02:19;;;;;;;9.30;4.47;;;;;;;;;;5056588;28;20025;-39
2022/01/20 02:04:48;;;;;;;9.68;4.90;;;;;;;;;;5061211;28;20107;-38
2022/01/20 02:18:36;;;;;;;6.03;4.00;;;;;;;;;;5057542;28;20158;-38
2022/01/20 02:21:05;;;;;;;5.72;4.03;;;;;;;;;;5051121;28;20071;-38
2022/01/20 02:23:33;;;;;;;5.55;3.80;;;;;;;;;;5058965;28;20084;-40
2022/01/20 02:26:01;;;;;;;8.70;3.83;;;;;;;;;;5052872;28;20032;-38
2022/01/20 02:28:28;;;;;;;4.85;3.90;;;;;;;;;;5052123;28;20033;-38
2022/01/20 02:30:56;;;;;;;12.45;4.00;;;;;;;;;;5046415;28;20429;-38
2022/01/20 02:33:24;;;;;;;7.40;3.85;;;;;;;;;;5051885;28;20094;-38
2022/01/20 02:35:58;;;;;;;6.78;4.07;;;;;;;;;;5054978;28;20562;-38
2022/01/20 02:38:49;;;;;;;7.70;3.67;;;;;;;;;;5053150;28;20067;-39
2022/01/20 02:46:46;;;;;;;5.45;3.90;;;;;;;;;;5052083;28;20043;-38
2022/01/20 02:49:14;;;;;;;6.28;3.67;;;;;;;;;;5050703;28;20029;-38
2022/01/20 02:51:52;;;;;;;6.10;3.88;;;;;;;;;;5046409;28;20121;-38
2022/01/20 02:54:19;;;;;;;8.07;3.67;;;;;;;;;;5053161;28;20064;-38
2022/01/20 02:56:47;;;;;;;8.02;3.78;;;;;;;;;;5054571;28;20013;-38
2022/01/20 02:59:14;;;;;;;6.70;3.70;;;;;;;;;;5053832;28;20017;-39
2022/01/20 03:01:42;;;;;;;6.70;3.50;;;;;;;;;;5046655;28;20094;-37
2022/01/20 03:04:11;;;;;;;5.18;3.70;;;;;;;;;;5052452;28;20127;-38
2022/01/20 03:06:38;;;;;;;6.80;3.30;;;;;;;;;;5050563;28;20056;-38
2022/01/20 03:09:06;;;;;;;6.97;3.75;;;;;;;;;;5053803;28;20032;-38
2022/01/20 03:11:34;;;;;;;7.72;3.85;;;;;;;;;;5045445;28;20179;-38
2022/01/20 03:14:02;;;;;;;6.18;3.63;;;;;;;;;;5051461;28;20043;-38
2022/01/20 03:16:30;;;;;;;7.18;3.35;;;;;;;;;;5051729;28;20025;-38
2022/01/20 03:18:58;;;;;;;6.45;3.45;;;;;;;;;;5053859;28;20475;-36
2022/01/20 03:21:26;;;;;;;6.75;3.47;;;;;;;;;;5046909;28;20028;-36
2022/01/20 03:23:54;;;;;;;6.95;3.80;;;;;;;;;;5057602;28;20029;-38
2022/01/20 03:26:22;;;;;;;4.40;3.25;;;;;;;;;;5058354;28;20029;-38
2022/01/20 03:28:50;;;;;;;7.13;3.17;;;;;;;;;;5048827;28;20029;-38
2022/01/20 03:31:18;;;;;;;7.38;3.50;;;;;;;;;;5047569;28;20036;-37
2022/01/20 03:33:45;;;;;;;5.78;3.78;;;;;;;;;;5061672;28;20068;-37
2022/01/20 03:36:13;;;;;;;4.40;3.00;;;;;;;;;;5052469;28;20044;-38
2022/01/20 03:38:41;;;;;;;5.25;3.30;;;;;;;;;;5060516;28;20090;-37
2022/01/20 03:41:08;;;;;;;5.03;3.22;;;;;;;;;;5048927;28;20040;-36
2022/01/20 03:43:35;;;;;;;5.47;3.40;;;;;;;;;;5057756;28;20103;-37
2022/01/20 03:46:05;;;;;;;6.90;3.53;;;;;;;;;;5057639;28;20111;-36
2022/01/20 03:48:38;;;;;;;4.05;2.80;;;;;;;;;;5053549;28;20471;-37
2022/01/20 03:51:06;;;;;;;4.32;3.13;;;;;;;;;;5053978;28;20123;-38
2022/01/20 03:53:36;;;;;;;4.55;3.05;;;;;;;;;;5043643;28;20031;-35
2022/01/20 03:56:04;;;;;;;5.57;2.83;;;;;;;;;;5052579;28;20429;-35
2022/01/20 03:58:32;;;;;;;3.88;3.17;;;;;;;;;;5052046;28;20021;-37
2022/01/20 04:00:59;;;;;;;5.07;3.00;;;;;;;;;;5052357;28;20063;-36
2022/01/20 04:03:26;;;;;;;5.90;3.00;;;;;;;;;;5046189;28;20120;-36
2022/01/20 04:08:21;;;;;;;4.40;3.10;;;;;;;;;;5052072;28;20544;-36
2022/01/20 04:10:48;;;;;;;4.20;3.10;;;;;;;;;;5051719;28;20037;-36
2022/01/20 04:13:16;;;;;;;3.78;2.90;;;;;;;;;;5048402;28;20515;-36
2022/01/20 04:15:43;;;;;;;4.05;2.70;;;;;;;;;;5054347;28;20688;-36
2022/01/20 04:18:13;;;;;;;4.53;2.90;;;;;;;;;;5053814;28;20029;-36
2022/01/20 04:20:40;;;;;;;5.68;3.13;;;;;;;;;;5053114;28;20043;-35
2022/01/20 04:23:07;;;;;;;3.67;2.47;;;;;;;;;;5048282;28;20479;-36
2022/01/20 04:25:34;;;;;;;6.97;2.75;;;;;;;;;;5053687;28;20522;-36
2022/01/20 04:28:01;;;;;;;3.75;2.90;;;;;;;;;;5053525;28;20032;-36
2022/01/20 04:30:29;;;;;;;3.55;2.58;;;;;;;;;;5052934;28;20033;-37
2022/01/20 04:32:56;;;;;;;3.40;2.88;;;;;;;;;;5048086;28;20080;-37
2022/01/20 04:35:23;;;;;;;4.35;2.95;;;;;;;;;;5053801;28;20045;-37
2022/01/20 04:37:53;;;;;;;4.70;3.00;;;;;;;;;;5053759;28;20049;-37
2022/01/20 04:40:21;;;;;;;5.15;3.05;;;;;;;;;;5052599;28;20049;-38
2022/01/20 04:42:49;;;;;;;4.25;2.70;;;;;;;;;;5047748;28;20048;-37
2022/01/20 04:45:27;;;;;;;8.80;2.80;;;;;;;;;;5053653;28;20534;-37
2022/01/20 04:58:55;;;;;;;3.08;2.63;;;;;;;;;;5052829;28;20079;-37
2022/01/20 05:01:22;;;;;;;5.30;2.60;;;;;;;;;;5052204;28;20422;-38
2022/01/20 05:03:49;;;;;;;4.28;2.72;;;;;;;;;;5047681;28;20025;-36
2022/01/20 05:06:16;;;;;;;4.63;2.72;;;;;;;;;;5053175;28;20082;-37
2022/01/20 05:08:43;;;;;;;3.53;2.30;;;;;;;;;;5052872;28;20037;-37
2022/01/20 05:11:12;;;;;;;2.72;2.40;;;;;;;;;;5052378;28;20037;-38
2022/01/20 05:13:40;;;;;;;5.43;2.42;;;;;;;;;;5046718;28;20159;-37
2022/01/20 05:16:11;;;;;;;3.35;2.30;;;;;;;;;;5052685;28;20479;-37
2022/01/20 05:18:38;;;;;;;3.67;2.55;;;;;;;;;;5052636;28;20055;-37
2022/01/20 05:21:05;;;;;;;3.05;2.50;;;;;;;;;;5052369;28;20456;-37
2022/01/20 05:23:32;;;;;;;5.00;2.85;;;;;;;;;;5047134;28;20075;-39
2022/01/20 05:25:59;;;;;;;3.53;2.63;;;;;;;;;;5031640;28;20085;-37
2022/01/20 05:28:26;;;;;;;5.15;2.42;;;;;;;;;;5032481;28;20041;-37
2022/01/20 05:30:53;;;;;;;3.90;2.70;;;;;;;;;;5032276;28;20511;-37
2022/01/20 05:33:20;;;;;;;3.10;2.42;;;;;;;;;;5030580;28;20092;-38
2022/01/20 05:35:47;;;;;;;3.05;2.28;;;;;;;;;;5029307;28;20103;-37
2022/01/20 05:38:14;;;;;;;3.85;2.45;;;;;;;;;;5032565;28;20636;-37
2022/01/20 05:40:41;;;;;;;3.33;2.50;;;;;;;;;;5030765;28;20029;-37
2022/01/20 05:43:08;;;;;;;3.25;2.47;;;;;;;;;;5031693;28;20103;-37
2022/01/20 05:45:35;;;;;;;2.85;2.15;;;;;;;;;;5040960;28;20068;-37
2022/01/20 05:48:12;;;;;;;3.97;2.55;;;;;;;;;;5050753;28;20072;-36
2022/01/20 05:50:39;;;;;;;2.78;2.25;;;;;;;;;;5052088;28;20803;-37
2022/01/20 05:53:07;;;;;;;3.58;2.30;;;;;;;;;;5051009;28;20029;-37
2022/01/20 05:55:34;;;;;;;3.25;2.50;;;;;;;;;;5032969;28;20068;-35
2022/01/20 05:58:02;;;;;;;3.55;2.53;;;;;;;;;;5032014;28;20025;-37
2022/01/20 06:00:29;;;;;;;2.92;2.10;;;;;;;;;;5031827;28;20098;-36
2022/01/20 06:05:42;;;;;;;3.45;2.15;;;;;;;;;;5029798;28;20091;-37
2022/01/20 06:08:09;;;;;;;5.70;2.50;;;;;;;;;;5031850;28;20029;-37
2022/01/20 06:10:37;;;;;;;3.65;2.67;;;;;;;;;;5031528;28;20044;-37
2022/01/20 06:13:04;;;;;;;2.35;2.13;;;;;;;;;;5031421;28;20128;-37
2022/01/20 06:15:31;;;;;;;2.67;2.05;;;;;;;;;;5034389;28;20029;-37
2022/01/20 06:17:58;;;;;;;3.30;2.42;;;;;;;;;;5050417;28;20128;-37
2022/01/20 06:20:25;;;;;;;2.97;1.92;;;;;;;;;;5051513;28;20051;-37
2022/01/20 06:22:52;;;;;;;3.78;2.25;;;;;;;;;;5051211;28;20368;-37
2022/01/20 06:25:20;;;;;;;2.45;1.90;;;;;;;;;;5043184;28;20037;-38
2022/01/20 06:27:47;;;;;;;3.20;2.45;;;;;;;;;;5051407;28;20063;-37
2022/01/20 06:30:14;;;;;;;2.42;2.15;;;;;;;;;;5051573;28;20029;-37
2022/01/20 06:32:41;;;;;;;3.58;2.45;;;;;;;;;;5051155;28;20506;-37
2022/01/20 06:35:08;;;;;;;4.00;2.10;;;;;;;;;;5047108;28;20069;-38
2022/01/20 06:37:35;;;;;;;3.03;2.20;;;;;;;;;;5049607;28;20136;-37
2022/01/20 06:40:03;;;;;;;2.70;2.15;;;;;;;;;;5051232;28;20447;-37
2022/01/20 06:42:31;;;;;;;2.83;2.30;;;;;;;;;;5051034;28;20029;-37
2022/01/20 06:44:57;;;;;;;2.17;1.83;;;;;;;;;;5050350;28;20029;-38
2022/01/20 06:47:24;;;;;;;2.53;2.13;;;;;;;;;;5046501;28;20033;-37
2022/01/20 06:49:51;;;;;;;2.38;1.85;;;;;;;;;;5051592;28;20569;-37
2022/01/20 06:52:18;;;;;;;2.20;2.00;;;;;;;;;;5051011;28;20041;-36
2022/01/20 06:54:45;;;;;;;2.78;2.08;;;;;;;;;;5050301;28;20143;-37
2022/01/20 06:57:12;;;;;;;2.63;1.98;;;;;;;;;;5045744;28;20060;-37
2022/01/20 06:59:39;;;;;;;2.70;2.00;;;;;;;;;;5051141;28;20029;-37
2022/01/20 07:02:06;;;;;;;3.08;1.92;;;;;;;;;;5049690;28;20398;-37
2022/01/20 07:04:33;;;;;;;2.20;1.80;;;;;;;;;;5050909;28;20025;-37
2022/01/20 07:07:00;;;;;;;4.55;2.03;;;;;;;;;;5045191;28;20102;-37
2022/01/20 07:09:27;;;;;;;3.30;2.20;;;;;;;;;;5050901;28;20029;-37
2022/01/20 07:11:54;;;;;;;3.05;2.00;;;;;;;;;;5051312;28;20037;-37
2022/01/20 07:17:31;;;;;;;3.05;2.17;;;;;;;;;;5053356;28;20091;-37
2022/01/20 07:19:58;;;;;;;2.30;1.75;;;;;;;;;;5054927;28;20043;-37
2022/01/20 07:22:25;;;;;;;2.58;1.80;;;;;;;;;;5054560;28;20021;-37
2022/01/20 07:24:52;;;;;;;2.40;1.80;;;;;;;;;;5054432;28;20047;-37
2022/01/20 07:27:19;;;;;;;4.88;2.08;;;;;;;;;;5048634;28;20490;-37
2022/01/20 07:29:46;;;;;;;3.22;2.10;;;;;;;;;;5054703;28;20104;-37
2022/01/20 07:32:13;;;;;;;2.33;2.00;;;;;;;;;;5054682;28;20044;-37
2022/01/20 07:34:40;;;;;;;1.98;1.77;;;;;;;;;;5054029;28;20049;-37
2022/01/20 07:37:07;;;;;;;3.30;2.00;;;;;;;;;;5048651;28;20033;-37
2022/01/20 07:39:34;;;;;;;3.30;1.85;;;;;;;;;;5054431;28;20168;-37
2022/01/20 07:42:01;;;;;;;1.95;1.80;;;;;;;;;;5054373;28;20075;-37
2022/01/20 07:44:28;;;;;;;2.47;1.83;;;;;;;;;;5054077;28;20033;-37
2022/01/20 07:46:55;;;;;;;2.30;1.60;;;;;;;;;;5049501;28;20236;-36
2022/01/20 07:49:22;;;;;;;2.20;1.60;;;;;;;;;;5053117;28;20060;-38
2022/01/20 07:51:49;;;;;;;3.95;1.88;;;;;;;;;;5052912;28;20123;-37
2022/01/20 07:54:16;;;;;;;2.10;1.58;;;;;;;;;;5053582;28;20040;-37
2022/01/20 07:56:43;;;;;;;2.50;1.80;;;;;;;;;;5052778;28;20044;-40
2022/01/20 07:59:10;;;;;;;3.20;1.55;;;;;;;;;;5049905;28;20040;-36
2022/01/20 08:01:38;;;;;;;2.05;1.70;;;;;;;;;;5053968;28;20529;-37
2022/01/20 08:04:05;;;;;;;2.72;1.92;;;;;;;;;;5053651;28;20033;-37
2022/01/20 08:06:33;;;;;;;2.65;1.65;;;;;;;;;;5053684;28;20116;-37
2022/01/20 08:09:00;;;;;;;1.60;1.50;;;;;;;;;;5048149;28;20041;-37
2022/01/20 08:11:27;;;;;;;1.88;1.60;;;;;;;;;;5053769;28;20033;-37
2022/01/20 08:13:55;;;;;;;2.13;1.70;;;;;;;;;;5053452;28;20066;-37
2022/01/20 08:16:23;;;;;;;1.92;1.52;;;;;;;;;;5053607;28;20041;-37
2022/01/20 08:18:50;;;;;;;4.32;1.95;;;;;;;;;;5047947;28;20104;-37
2022/01/20 08:21:17;;;;;;;2.00;1.67;;;;;;;;;;5053722;28;20437;-37
2022/01/20 08:23:44;;;;;;;2.95;1.63;;;;;;;;;;5053480;28;20033;-37
2022/01/20 08:26:11;;;;;;;2.38;1.80;;;;;;;;;;5052841;28;20056;-37
2022/01/20 08:28:38;;;;;;;3.17;1.63;;;;;;;;;;5047914;28;20033;-37
2022/01/20 08:31:05;;;;;;;1.88;1.42;;;;;;;;;;5053389;28;20029;-37
2022/01/20 08:33:31;;;;;;;3.20;1.50;;;;;;;;;;5053017;28;20079;-37
2022/01/20 08:35:58;;;;;;;1.58;1.45;;;;;;;;;;5053133;28;20080;-37
2022/01/20 08:38:25;;;;;;;2.72;1.60;;;;;;;;;;5047334;28;20037;-37
2022/01/20 08:40:53;;;;;;;2.00;1.40;;;;;;;;;;5053210;28;20079;-37
2022/01/20 08:43:20;;;;;;;2.20;1.60;;;;;;;;;;5053136;28;20033;-37
2022/01/20 08:45:47;;;;;;;2.72;1.48;;;;;;;;;;5052968;28;20035;-37
2022/01/20 08:48:14;;;;;;;1.73;1.48;;;;;;;;;;5049849;28;20048;-38
2022/01/20 08:50:42;;;;;;;2.53;1.45;;;;;;;;;;5050955;28;20120;-37
2022/01/20 08:53:10;;;;;;;1.63;1.10;;;;;;;;;;5052976;28;20496;-37
2022/01/20 08:55:37;;;;;;;3.10;1.55;;;;;;;;;;5052540;28;20045;-37
2022/01/20 08:58:05;;;;;;;2.33;1.63;;;;;;;;;;5052757;28;20025;-37
2022/01/20 09:00:33;;;;;;;3.95;1.50;;;;;;;;;;5047279;28;20029;-37
2022/01/20 09:03:00;;;;;;;1.80;1.30;;;;;;;;;;5052926;28;20033;-37
2022/01/20 09:05:28;;;;;;;1.70;1.20;;;;;;;;;;5052463;28;20029;-37
2022/01/20 09:07:55;;;;;;;2.33;1.40;;;;;;;;;;5052485;28;20045;-37
2022/01/20 09:10:22;;;;;;;2.45;1.45;;;;;;;;;;5046826;28;20029;-37
2022/01/20 09:15:36;;;;;;;2.25;1.40;;;;;;;;;;5052194;28;20055;-37
2022/01/20 09:18:05;;;;;;;1.83;1.10;;;;;;;;;;5052252;28;20069;-37
2022/01/20 09:20:34;;;;;;;2.83;1.30;;;;;;;;;;5046762;28;20581;-37
2022/01/20 09:23:01;;;;;;;4.03;1.48;;;;;;;;;;5052416;28;20032;-37
2022/01/20 09:25:28;;;;;;;1.30;1.17;;;;;;;;;;5052095;28;20036;-37
2022/01/20 09:28:00;;;;;;;2.78;1.35;;;;;;;;;;5052023;28;20032;-37
2022/01/20 09:30:27;;;;;;;2.30;1.40;;;;;;;;;;5046770;28;20037;-37
2022/01/20 09:33:01;;;;;;;3.28;1.20;;;;;;;;;;5052186;28;20033;-37
2022/01/20 09:35:29;;;;;;;2.58;1.30;;;;;;;;;;5051795;28;20105;-37
2022/01/20 09:37:56;;;;;;;1.90;1.40;;;;;;;;;;5051326;28;20039;-37
2022/01/20 09:40:23;;;;;;;2.00;1.30;;;;;;;;;;5046123;28;20094;-37
2022/01/20 09:42:50;;;;;;;1.73;1.20;;;;;;;;;;5052062;28;20035;-37
2022/01/20 09:45:17;;;;;;;1.48;1.20;;;;;;;;;;5052183;28;20036;-38
2022/01/20 09:47:45;;;;;;;1.55;1.02;;;;;;;;;;5051940;28;20087;-37
2022/01/20 09:50:18;;;;;;;1.70;1.30;;;;;;;;;;5046201;28;20037;-37
2022/01/20 09:52:49;;;;;;;1.38;0.93;;;;;;;;;;5051736;28;20043;-37
2022/01/20 09:55:17;;;;;;;1.98;1.08;;;;;;;;;;5051706;28;20136;-37
2022/01/20 09:57:44;;;;;;;2.60;1.20;;;;;;;;;;5051518;28;20044;-37
2022/01/20 10:00:12;;;;;;;2.28;1.15;;;;;;;;;;5047039;28;20139;-37
2022/01/20 10:02:50;;;;;;;1.95;1.10;;;;;;;;;;5051136;28;20112;-37
2022/01/20 10:05:32;;;;;;;3.15;1.17;;;;;;;;;;5051807;28;20025;-38
2022/01/20 10:08:08;;;;;;;2.53;1.30;;;;;;;;;;5051444;28;20033;-37
2022/01/20 10:10:39;;;;;;;1.35;1.10;;;;;;;;;;5045955;28;20060;-37
2022/01/20 10:13:07;;;;;;;1.67;0.98;;;;;;;;;;5051071;28;20036;-37
2022/01/20 10:15:34;;;;;;;3.05;1.30;;;;;;;;;;5051565;28;20044;-37
2022/01/20 10:18:08;;;;;;;3.33;1.17;;;;;;;;;;5051325;28;20065;-37
2022/01/20 10:20:35;;;;;;;2.17;1.10;;;;;;;;;;5047031;28;21566;-38
2022/01/20 10:23:03;;;;;;;1.45;0.90;;;;;;;;;;5050072;28;20441;-37
2022/01/20 10:25:35;;;;;;;2.40;1.20;;;;;;;;;;5051285;28;20090;-37
2022/01/20 10:28:02;;;;;;;1.38;0.95;;;;;;;;;;5051091;28;20570;-36
2022/01/20 10:30:30;;;;;;;1.42;1.00;;;;;;;;;;5049527;28;20033;-40
2022/01/20 10:32:59;;;;;;;2.55;1.10;;;;;;;;;;5047360;28;20497;-37
2022/01/20 10:35:30;;;;;;;2.78;1.20;;;;;;;;;;5050942;28;20049;-37
2022/01/20 10:38:03;;;;;;;1.90;1.05;;;;;;;;;;5050923;28;20037;-37
2022/01/20 10:40:30;;;;;;;2.05;1.10;;;;;;;;;;5050710;28;20143;-37
2022/01/20 10:42:57;;;;;;;1.60;0.88;;;;;;;;;;5045473;28;20029;-37
2022/01/20 10:45:24;;;;;;;2.95;1.00;;;;;;;;;;5049976;28;20340;-37
2022/01/20 10:47:52;;;;;;;3.75;1.10;;;;;;;;;;5050985;28;20033;-37
2022/01/20 10:50:22;;;;;;;2.63;0.90;;;;;;;;;;5054060;28;20040;-37
2022/01/20 10:52:50;;;;;;;2.33;0.90;;;;;;;;;;5049317;28;20044;-37
2022/01/20 10:55:25;;;;;;;3.35;1.08;;;;;;;;;;5055401;28;20033;-38
2022/01/20 10:57:53;;;;;;;1.40;0.80;;;;;;;;;;5055269;28;20060;-37
2022/01/20 11:00:21;;;;;;;2.00;1.00;;;;;;;;;;5054951;28;20029;-37
2022/01/20 11:02:50;;;;;;;3.03;0.95;;;;;;;;;;5049299;28;20029;-37
2022/01/20 11:05:17;;;;;;;1.58;0.80;;;;;;;;;;5055161;28;20032;-37
2022/01/20 11:07:44;;;;;;;2.05;1.02;;;;;;;;;;5053486;28;20075;-37
2022/01/20 11:10:12;;;;;;;2.05;1.10;;;;;;;;;;5054787;28;20049;-37
2022/01/20 11:12:40;;;;;;;1.38;0.70;;;;;;;;;;5049206;28;20529;-37
2022/01/20 11:15:08;;;;;;;2.97;0.98;;;;;;;;;;5054456;28;20090;-37
2022/01/20 11:17:36;;;;;;;3.20;1.10;;;;;;;;;;5054741;28;20045;-38
2022/01/20 11:20:05;;;;;;;1.75;0.73;;;;;;;;;;5054692;28;20037;-36
2022/01/20 11:22:33;;;;;;;1.30;0.80;;;;;;;;;;5049538;28;20059;-35
2022/01/20 11:25:10;;;;;;;1.88;0.80;;;;;;;;;;5053258;28;20127;-36
2022/01/20 11:27:42;;;;;;;1.73;0.60;;;;;;;;;;5054813;28;20029;-37
2022/01/20 11:30:21;;;;;;;2.05;0.70;;;;;;;;;;5054706;28;20481;-36
2022/01/20 11:33:01;;;;;;;1.77;0.98;;;;;;;;;;5049217;28;20045;-36
2022/01/20 11:35:39;;;;;;;1.40;0.73;;;;;;;;;;5054071;28;20573;-36
2022/01/20 11:38:06;;;;;;;2.42;1.00;;;;;;;;;;5054665;28;20039;-36
2022/01/20 11:40:33;;;;;;;1.63;0.65;;;;;;;;;;5054241;28;20041;-36
2022/01/20 11:43:03;;;;;;;2.33;0.88;;;;;;;;;;5049168;28;20036;-36
2022/01/20 11:45:32;;;;;;;1.98;0.70;;;;;;;;;;5053923;28;20037;-36
2022/01/20 11:48:11;;;;;;;1.77;0.77;;;;;;;;;;5054382;28;20037;-36
2022/01/20 11:50:38;;;;;;;1.90;0.80;;;;;;;;;;5054131;28;20127;-36
2022/01/20 11:53:14;;;;;;;1.10;0.70;;;;;;;;;;5048659;28;20056;-35
2022/01/20 11:55:46;;;;;;;2.58;0.90;;;;;;;;;;5053149;28;20525;-36
2022/01/20 11:58:13;;;;;;;1.85;0.80;;;;;;;;;;5054124;28;20032;-36
2022/01/20 12:00:41;;;;;;;2.38;0.90;;;;;;;;;;5041784;28;20021;-36
2022/01/20 12:03:13;;;;;;;1.77;0.90;;;;;;;;;;5039060;28;20562;-37
2022/01/20 12:05:40;;;;;;;1.67;0.80;;;;;;;;;;5053466;28;20123;-36
2022/01/20 12:08:20;;;;;;;1.10;0.55;;;;;;;;;;5060009;28;20033;-37
2022/01/20 12:11:00;;;;;;;1.30;0.60;;;;;;;;;;5061073;28;20119;-37
2022/01/20 12:13:27;;;;;;;3.42;0.70;;;;;;;;;;5051278;28;20052;-37
2022/01/20 12:15:58;;;;;;;3.28;0.85;;;;;;;;;;5062424;28;20032;-37
2022/01/20 12:18:26;;;;;;;1.65;0.70;;;;;;;;;;5055169;28;20043;-37
2022/01/20 12:20:53;;;;;;;2.47;0.75;;;;;;;;;;5055574;28;20425;-37
2022/01/20 12:23:20;;;;;;;2.55;0.85;;;;;;;;;;5049184;28;20040;-39
2022/01/20 12:25:48;;;;;;;2.08;0.70;;;;;;;;;;5060380;28;20120;-37
2022/01/20 12:28:16;;;;;;;1.33;0.70;;;;;;;;;;5056388;28;20036;-38
2022/01/20 12:30:47;;;;;;;2.17;0.90;;;;;;;;;;5054690;28;20025;-38
2022/01/20 12:33:15;;;;;;;1.13;0.90;;;;;;;;;;5058432;28;20066;-38
2022/01/20 12:35:48;;;;;;;2.95;0.55;;;;;;;;;;5048177;28;20041;-37
2022/01/20 12:38:22;;;;;;;1.50;0.77;;;;;;;;;;5053133;28;20485;-37
2022/01/20 12:40:59;;;;;;;1.98;0.90;;;;;;;;;;5052394;28;20060;-37
2022/01/20 12:43:38;;;;;;;2.10;0.73;;;;;;;;;;5051624;28;20025;-37
2022/01/20 12:46:05;;;;;;;1.45;0.70;;;;;;;;;;5048980;28;20021;-37
2022/01/20 12:48:32;;;;;;;1.98;0.90;;;;;;;;;;5052854;28;20071;-37
2022/01/20 12:51:02;;;;;;;11.82;1.23;;;;;;;;;;5053661;28;20036;-35
2022/01/20 12:53:34;;;;;;;6.30;2.33;;;;;;;;;;5054910;28;20449;-36
2022/01/20 12:56:01;;;;;;;8.07;1.80;;;;;;;;;;5048861;28;20020;-35
2022/01/20 12:58:28;;;;;;;7.07;1.50;;;;;;;;;;5055126;28;20025;-36
2022/01/20 13:00:59;;;;;;;6.53;2.10;;;;;;;;;;5055864;28;20033;-35
2022/01/20 13:03:39;;;;;;;9.82;2.72;;;;;;;;;;5065025;28;20033;-36
2022/01/20 13:06:08;;;;;;;9.02;2.63;;;;;;;;;;5048289;28;20434;-36
2022/01/20 13:08:40;;;;;;;14.38;2.97;;;;;;;;;;5055442;28;20090;-36
2022/01/20 13:11:10;;;;;;;3.33;2.25;;;;;;;;;;5055486;28;20059;-35
2022/01/20 13:13:37;;;;;;;4.03;2.45;;;;;;;;;;5052790;28;20060;-35
2022/01/20 13:16:16;;;;;;;3.70;3.00;;;;;;;;;;5053746;28;20086;-38
2022/01/20 13:18:53;;;;;;;15.27;4.20;;;;;;;;;;5057061;28;20025;-36
2022/01/20 13:21:26;;;;;;;10.18;3.33;;;;;;;;;;5055950;28;20039;-36
2022/01/20 13:23:57;;;;;;;4.15;3.00;;;;;;;;;;5061607;28;20028;-36
2022/01/20 13:26:24;;;;;;;6.07;3.03;;;;;;;;;;5051751;28;20123;-36
2022/01/20 13:29:05;;;;;;;4.22;2.85;;;;;;;;;;5059222;28;20029;-36
2022/01/20 13:31:33;;;;;;;5.30;3.30;;;;;;;;;;5050316;28;20115;-36
2022/01/20 13:34:07;;;;;;;5.30;3.58;;;;;;;;;;5053839;28;20855;-37
2022/01/20 13:36:38;;;;;;;5.88;3.63;;;;;;;;;;5046510;28;20071;-35
2022/01/20 13:39:06;;;;;;;4.32;3.50;;;;;;;;;;5054246;28;20029;-36
2022/01/20 13:41:33;;;;;;;7.55;3.25;;;;;;;;;;5052367;28;20036;-36
2022/01/20 13:46:48;;;;;;;5.88;3.30;;;;;;;;;;5048382;28;20039;-36
2022/01/20 13:49:15;;;;;;;4.90;3.78;;;;;;;;;;5052707;28;20025;-36
2022/01/20 13:51:42;;;;;;;6.38;4.68;;;;;;;;;;5067496;28;20115;-36
2022/01/20 13:54:09;;;;;;;7.90;3.28;;;;;;;;;;5058284;28;20032;-38
2022/01/20 13:56:37;;;;;;;10.40;3.50;;;;;;;;;;5059697;28;20114;-35
2022/01/20 13:59:04;;;;;;;11.82;3.20;;;;;;;;;;5061191;28;20541;-35
2022/01/20 14:01:31;;;;;;;53.03;4.13;;;;;;;;;;5062355;28;20043;-36
2022/01/20 14:03:58;;;;;;;22.17;4.13;;;;;;;;;;5049707;28;20033;-36
2022/01/20 14:06:26;;;;;;;13.60;3.67;;;;;;;;;;5056259;28;20033;-37
2022/01/20 14:08:53;;;;;;;11.30;3.20;;;;;;;;;;5053988;28;20029;-36
2022/01/20 14:11:21;;;;;;;13.70;4.38;;;;;;;;;;5053320;28;20036;-36
2022/01/20 14:13:48;;;;;;;11.20;3.70;;;;;;;;;;5053369;28;20040;-36
2022/01/20 14:16:15;;;;;;;5.55;2.75;;;;;;;;;;5052602;28;20111;-37
2022/01/20 14:18:45;;;;;;;5.15;3.50;;;;;;;;;;5055643;28;20059;-36
2022/01/20 14:21:13;;;;;;;9.20;4.10;;;;;;;;;;5056222;28;20048;-36
2022/01/20 14:23:40;;;;;;;5.32;3.92;;;;;;;;;;5058994;28;20029;-36
2022/01/20 14:26:11;;;;;;;11.35;4.20;;;;;;;;;;5054534;28;20119;-36
2022/01/20 14:28:38;;;;;;;9.20;5.20;;;;;;;;;;5059215;28;20031;-36
2022/01/20 14:31:05;;;;;;;8.13;5.07;;;;;;;;;;5059808;28;20033;-38
2022/01/20 14:33:32;;;;;;;7.15;5.20;;;;;;;;;;5051701;28;20041;-39
2022/01/20 14:36:02;;;;;;;7.45;5.25;;;;;;;;;;5053261;28;20095;-36
2022/01/20 14:38:29;;;;;;;7.45;5.63;;;;;;;;;;5062412;28;20039;-37
2022/01/20 14:40:56;;;;;;;13.15;6.10;;;;;;;;;;5058795;28;20043;-37
2022/01/20 14:43:23;;;;;;;9.70;5.47;;;;;;;;;;5062386;28;20032;-37
2022/01/20 14:45:51;;;;;;;8.05;5.30;;;;;;;;;;5067034;28;20084;-38
2022/01/20 14:48:18;;;;;;;11.98;5.47;;;;;;;;;;5058095;28;20477;-37
2022/01/20 14:50:46;;;;;;;7.80;4.40;;;;;;;;;;5053617;28;20115;-37
2022/01/20 14:53:13;;;;;;;7.78;4.35;;;;;;;;;;5056386;28;20036;-37
2022/01/20 14:55:40;;;;;;;5.82;4.78;;;;;;;;;;5055545;28;20039;-37
2022/01/20 14:58:07;;;;;;;6.00;4.43;;;;;;;;;;5054465;28;20040;-37
2022/01/20 15:00:35;;;;;;;7.20;4.50;;;;;;;;;;5054448;28;20029;-37
2022/01/20 15:03:02;;;;;;;7.03;4.50;;;;;;;;;;5055542;28;20025;-37
2022/01/20 15:05:29;;;;;;;6.78;4.93;;;;;;;;;;5052762;28;20029;-37
2022/01/20 15:07:57;;;;;;;5.75;4.88;;;;;;;;;;5059948;28;20033;-37
2022/01/20 15:10:24;;;;;;;10.68;4.68;;;;;;;;;;5056327;28;20040;-37
2022/01/20 15:12:59;;;;;;;8.25;4.93;;;;;;;;;;5059331;28;20033;-36
2022/01/20 15:15:26;;;;;;;6.72;4.22;;;;;;;;;;5058845;28;20036;-38
2022/01/20 15:17:53;;;;;;;5.00;4.15;;;;;;;;;;5057974;28;20550;-36
2022/01/20 15:20:19;;;;;;;7.10;4.10;;;;;;;;;;5063709;28;20074;-37
2022/01/20 15:22:46;;;;;;;5.50;4.28;;;;;;;;;;5049629;28;20040;-36
2022/01/20 15:25:14;;;;;;;6.25;4.43;;;;;;;;;;5059163;28;20648;-37
2022/01/20 15:27:41;;;;;;;16.00;4.65;;;;;;;;;;5055881;28;20032;-37
2022/01/20 15:30:08;;;;;;;8.80;4.60;;;;;;;;;;5059289;28;20029;-36
2022/01/20 15:32:35;;;;;;;5.78;4.55;;;;;;;;;;5063081;28;20120;-36
2022/01/20 15:35:03;;;;;;;5.93;4.72;;;;;;;;;;5052324;28;20041;-37
2022/01/20 15:37:30;;;;;;;6.50;4.75;;;;;;;;;;5055834;28;20028;-38
2022/01/20 15:39:57;;;;;;;7.82;5.00;;;;;;;;;;5056693;28;20033;-37
2022/01/20 15:42:25;;;;;;;7.57;5.47;;;;;;;;;;5063218;28;20021;-37
2022/01/20 15:44:52;;;;;;;6.18;5.20;;;;;;;;;;5057676;28;20033;-37
2022/01/20 15:47:19;;;;;;;7.97;5.32;;;;;;;;;;5056369;28;20036;-37
2022/01/20 15:49:46;;;;;;;12.73;5.72;;;;;;;;;;5061701;28;20029;-38
2022/01/20 15:52:13;;;;;;;49.33;11.68;;;;;;;;;;5062755;28;20044;-38
2022/01/20 15:54:40;;;;;;;62.15;13.98;;;;;;;;;;5057167;28;20528;-37
2022/01/20 15:57:07;;;;;;;43.78;10.18;;;;;;;;;;5057709;28;20052;-35
2022/01/20 15:59:34;;;;;;;47.55;10.95;;;;;;;;;;5054000;28;20534;-35
2022/01/20 16:02:01;;;;;;;25.88;9.60;;;;;;;;;;5053096;28;20027;-35
2022/01/20 16:04:28;;;;;;;30.35;9.80;;;;;;;;;;5054589;28;20033;-37